Details From KDAL - Dallas Love Fld
To KBMT - Beaumont Muni
Flight Number -
Tags Generated
Created
Modified
Stats Distance 215 nm / 398 km
Max Altitude 0 ft / 0 m
Waypoints 2
Social Downloads 3
Likes 0
Share VATSIM

Download

Looking for another format? Having issues loading an existing format? Contact us
Advertisement - Login to hide

Notes

Generated

Route

KDAL KBMT

ID Type Via Altitude Latitude Longitude Leg Dist Tot Dist Heading (true) Name
O KDAL APT - 0 ft / 0 m 32.85866˚ -96.85322˚ - 0 nm - -
O KBMT APT - 0 ft / 0 m 30.07259˚ -94.21439˚ 215 nm 215 nm 140° / 142° BEAUMONT MUNI

Altitude Profile

Advertisement - Login to hide

Weather


0- 5 10 15 20 25 30 35+ Temperature / ° C

Clouds and Precipitation
Forecast for 2017-12-15 06:00 UTC. Updated 2 hours ago

Ground ~20,000 ft ~40,000 ft Winds

KDAL

Details ICAO KDAL (DAL)
Name Dallas Love Fld
Region United States
Timezone America/Chicago (UTC-6.0)
Stats Elevation 487 ft / 148 m (AMSL)
Location 32.847529° -96.851864°
Runways 3
Magnetic Variation 3.322° E

METAR

KDAL 150253Z 36008KT 10SM FEW250 09/M03 A3018 RMK AO2 SLP217 T00941028 51028

Decode

TAF

TAF AMD KDAL 150255Z 1503/1524 34008KT P6SM SCT250

Decode

Departure Runways

ID Width Length Bearing (true) Bearing (mag) Surface Threshold Offset Overrun Length
13L 151 ft / 46 m 7,757 ft / 2,364 m 135.77° 132.45° Concrete 0 ft / 0 m 200 ft / 61 m
13R 151 ft / 46 m 8,805 ft / 2,684 m 135.76° 132.44° Concrete 489 ft / 149 m 200 ft / 61 m
18 151 ft / 46 m 6,164 ft / 1,879 m 185.50° 182.18° Asphalt 0 ft / 0 m 200 ft / 61 m
31L 151 ft / 46 m 8,805 ft / 2,684 m 315.77° 312.45° Concrete 0 ft / 0 m 200 ft / 61 m
31R 151 ft / 46 m 7,757 ft / 2,364 m 315.78° 312.46° Concrete 0 ft / 0 m 200 ft / 61 m
36 151 ft / 46 m 6,164 ft / 1,879 m 5.50° 2.18° Asphalt 0 ft / 0 m 200 ft / 61 m

KBMT

Details ICAO KBMT
Name BEAUMONT MUNI
Region United States
Timezone America/Chicago (UTC-6.0)
Stats Elevation 32 ft / 10 m (AMSL)
Location 30.070107° -94.214770°
Runways 2
Magnetic Variation 1.781° E

METAR

KBMT 150315Z AUTO 36005KT 10SM CLR 11/08 A3007 RMK AO2 T01140080

Decode

TAF

Not found

Destination Runways

ID Width Length Bearing (true) Bearing (mag) Surface Threshold Offset Overrun Length
13 75 ft / 23 m 3,982 ft / 1,214 m 132.14° 130.36° Asphalt 332 ft / 101 m 0 ft / 0 m
16 100 ft / 30 m 2,307 ft / 703 m 169.06° 167.28° Grass 0 ft / 0 m 0 ft / 0 m
31 75 ft / 23 m 3,982 ft / 1,214 m 312.14° 310.36° Asphalt 67 ft / 20 m 0 ft / 0 m
34 100 ft / 30 m 2,307 ft / 703 m 349.06° 347.28° Grass 0 ft / 0 m 0 ft / 0 m